sensor_id;sensor_type;location;lat;lon;timestamp;temperature;humidity
6206;DHT22;3136;48.788;9.772;2023-07-13T00:00:19;18.00;99.90
6206;DHT22;3136;48.788;9.772;2023-07-13T00:02:45;18.00;99.90
6206;DHT22;3136;48.788;9.772;2023-07-13T00:05:10;17.90;99.90
6206;DHT22;3136;48.788;9.772;2023-07-13T00:07:36;17.90;99.90
6206;DHT22;3136;48.788;9.772;2023-07-13T00:10:03;17.80;99.90
6206;DHT22;3136;48.788;9.772;2023-07-13T00:12:32;17.80;99.90
6206;DHT22;3136;48.788;9.772;2023-07-13T00:14:58;17.70;99.90
6206;DHT22;3136;48.788;9.772;2023-07-13T00:17:26;17.70;99.90
6206;DHT22;3136;48.788;9.772;2023-07-13T00:19:52;17.80;99.90
6206;DHT22;3136;48.788;9.772;2023-07-13T00:22:18;17.60;1.00
6206;DHT22;3136;48.788;9.772;2023-07-13T00:24:45;17.60;1.00
6206;DHT22;3136;48.788;9.772;2023-07-13T00:27:11;17.60;99.90
6206;DHT22;3136;48.788;9.772;2023-07-13T00:29:37;18.30;99.90
6206;DHT22;3136;48.788;9.772;2023-07-13T00:32:04;17.60;99.90
6206;DHT22;3136;48.788;9.772;2023-07-13T00:34:30;17.60;99.90
6206;DHT22;3136;48.788;9.772;2023-07-13T00:36:56;17.60;99.90
6206;DHT22;3136;48.788;9.772;2023-07-13T00:39:21;17.60;99.90
6206;DHT22;3136;48.788;9.772;2023-07-13T00:41:48;17.60;99.90
6206;DHT22;3136;48.788;9.772;2023-07-13T00:44:14;17.50;99.90
6206;DHT22;3136;48.788;9.772;2023-07-13T00:46:40;17.60;99.90
6206;DHT22;3136;48.788;9.772;2023-07-13T00:49:08;17.50;1.00
6206;DHT22;3136;48.788;9.772;2023-07-13T00:51:40;17.50;1.00
6206;DHT22;3136;48.788;9.772;2023-07-13T00:54:11;17.50;1.00
6206;DHT22;3136;48.788;9.772;2023-07-13T00:56:39;17.50;1.00
6206;DHT22;3136;48.788;9.772;2023-07-13T00:59:07;17.50;1.00
6206;DHT22;3136;48.788;9.772;2023-07-13T01:01:33;17.60;1.00
6206;DHT22;3136;48.788;9.772;2023-07-13T01:03:59;17.60;1.00
6206;DHT22;3136;48.788;9.772;2023-07-13T01:06:25;17.60;1.00
6206;DHT22;3136;48.788;9.772;2023-07-13T01:08:50;18.20;1.00
6206;DHT22;3136;48.788;9.772;2023-07-13T01:11:20;17.50;1.00
6206;DHT22;3136;48.788;9.772;2023-07-13T01:13:47;17.50;1.00
6206;DHT22;3136;48.788;9.772;2023-07-13T01:16:19;17.50;1.00
6206;DHT22;3136;48.788;9.772;2023-07-13T01:18:47;17.50;1.00
6206;DHT22;3136;48.788;9.772;2023-07-13T01:21:13;17.50;1.00
6206;DHT22;3136;48.788;9.772;2023-07-13T01:23:38;17.50;1.00
6206;DHT22;3136;48.788;9.772;2023-07-13T01:26:04;17.50;1.00
6206;DHT22;3136;48.788;9.772;2023-07-13T01:28:29;17.50;1.00
6206;DHT22;3136;48.788;9.772;2023-07-13T01:30:57;17.40;1.00
6206;DHT22;3136;48.788;9.772;2023-07-13T01:33:24;17.50;1.00
6206;DHT22;3136;48.788;9.772;2023-07-13T01:35:50;17.40;1.00
6206;DHT22;3136;48.788;9.772;2023-07-13T01:38:17;17.40;1.00
6206;DHT22;3136;48.788;9.772;2023-07-13T01:40:43;17.30;94.90
6206;DHT22;3136;48.788;9.772;2023-07-13T01:43:09;17.30;99.90
6206;DHT22;3136;48.788;9.772;2023-07-13T01:45:35;17.20;1.00
6206;DHT22;3136;48.788;9.772;2023-07-13T01:48:00;17.20;1.00
6206;DHT22;3136;48.788;9.772;2023-07-13T01:50:26;17.20;37.70
6206;DHT22;3136;48.788;9.772;2023-07-13T01:52:52;17.00;99.90
6206;DHT22;3136;48.788;9.772;2023-07-13T01:55:20;16.90;1.00
6206;DHT22;3136;48.788;9.772;2023-07-13T01:57:46;16.90;1.00
6206;DHT22;3136;48.788;9.772;2023-07-13T02:00:13;16.80;99.90
6206;DHT22;3136;48.788;9.772;2023-07-13T02:02:39;16.80;1.00
6206;DHT22;3136;48.788;9.772;2023-07-13T02:05:05;16.70;1.00
6206;DHT22;3136;48.788;9.772;2023-07-13T02:07:31;16.70;1.00
6206;DHT22;3136;48.788;9.772;2023-07-13T02:09:56;16.70;99.90
6206;DHT22;3136;48.788;9.772;2023-07-13T02:12:22;16.70;99.90
6206;DHT22;3136;48.788;9.772;2023-07-13T02:14:47;16.60;99.90
6206;DHT22;3136;48.788;9.772;2023-07-13T02:17:13;16.60;99.90
6206;DHT22;3136;48.788;9.772;2023-07-13T02:19:39;16.50;1.00
6206;DHT22;3136;48.788;9.772;2023-07-13T02:22:04;16.50;1.00
6206;DHT22;3136;48.788;9.772;2023-07-13T02:24:30;16.50;1.00
6206;DHT22;3136;48.788;9.772;2023-07-13T02:26:55;16.40;1.00
6206;DHT22;3136;48.788;9.772;2023-07-13T02:29:21;16.40;1.00
6206;DHT22;3136;48.788;9.772;2023-07-13T02:31:46;16.30;1.00
6206;DHT22;3136;48.788;9.772;2023-07-13T02:34:12;16.30;1.00
6206;DHT22;3136;48.788;9.772;2023-07-13T02:36:38;16.30;99.90
6206;DHT22;3136;48.788;9.772;2023-07-13T02:39:05;16.20;99.90
6206;DHT22;3136;48.788;9.772;2023-07-13T02:41:31;16.20;99.90
6206;DHT22;3136;48.788;9.772;2023-07-13T02:43:58;16.20;99.90
6206;DHT22;3136;48.788;9.772;2023-07-13T02:46:33;16.20;99.90
6206;DHT22;3136;48.788;9.772;2023-07-13T02:48:59;16.20;99.90
6206;DHT22;3136;48.788;9.772;2023-07-13T02:51:25;16.10;99.90
6206;DHT22;3136;48.788;9.772;2023-07-13T02:53:51;16.00;99.90
6206;DHT22;3136;48.788;9.772;2023-07-13T02:56:16;16.00;1.00
6206;DHT22;3136;48.788;9.772;2023-07-13T02:58:42;16.00;99.90
6206;DHT22;3136;48.788;9.772;2023-07-13T03:01:10;15.90;99.90
6206;DHT22;3136;48.788;9.772;2023-07-13T03:03:36;15.90;99.90
6206;DHT22;3136;48.788;9.772;2023-07-13T03:06:03;15.90;99.90
6206;DHT22;3136;48.788;9.772;2023-07-13T03:08:30;15.90;99.90
6206;DHT22;3136;48.788;9.772;2023-07-13T03:11:01;15.80;99.90
6206;DHT22;3136;48.788;9.772;2023-07-13T03:13:26;15.90;1.00
6206;DHT22;3136;48.788;9.772;2023-07-13T03:15:52;15.70;1.00
6206;DHT22;3136;48.788;9.772;2023-07-13T03:18:17;15.60;1.00
6206;DHT22;3136;48.788;9.772;2023-07-13T03:20:43;15.70;1.00
6206;DHT22;3136;48.788;9.772;2023-07-13T03:23:09;15.60;1.00
6206;DHT22;3136;48.788;9.772;2023-07-13T03:25:34;15.60;1.00
6206;DHT22;3136;48.788;9.772;2023-07-13T03:28:00;15.50;35.10
6206;DHT22;3136;48.788;9.772;2023-07-13T03:30:25;15.50;99.90
6206;DHT22;3136;48.788;9.772;2023-07-13T03:32:51;15.50;99.90
6206;DHT22;3136;48.788;9.772;2023-07-13T03:35:17;15.50;99.90
6206;DHT22;3136;48.788;9.772;2023-07-13T03:37:42;15.40;99.90
6206;DHT22;3136;48.788;9.772;2023-07-13T03:40:08;15.40;99.90
6206;DHT22;3136;48.788;9.772;2023-07-13T03:42:35;15.40;99.90
6206;DHT22;3136;48.788;9.772;2023-07-13T03:45:00;15.30;99.90
6206;DHT22;3136;48.788;9.772;2023-07-13T03:47:26;15.30;99.90
6206;DHT22;3136;48.788;9.772;2023-07-13T03:49:51;15.30;90.70
6206;DHT22;3136;48.788;9.772;2023-07-13T03:52:17;15.30;1.00
6206;DHT22;3136;48.788;9.772;2023-07-13T03:54:42;15.20;1.00
6206;DHT22;3136;48.788;9.772;2023-07-13T03:57:08;15.20;1.00
6206;DHT22;3136;48.788;9.772;2023-07-13T03:59:34;15.20;79.90
6206;DHT22;3136;48.788;9.772;2023-07-13T04:02:00;15.30;99.90
6206;DHT22;3136;48.788;9.772;2023-07-13T04:04:26;15.20;99.90
6206;DHT22;3136;48.788;9.772;2023-07-13T04:06:51;15.20;99.90
6206;DHT22;3136;48.788;9.772;2023-07-13T04:09:19;15.20;99.90
6206;DHT22;3136;48.788;9.772;2023-07-13T04:11:44;15.30;99.90
6206;DHT22;3136;48.788;9.772;2023-07-13T04:14:10;15.30;99.90
6206;DHT22;3136;48.788;9.772;2023-07-13T04:16:35;15.30;99.90
6206;DHT22;3136;48.788;9.772;2023-07-13T04:19:01;15.40;1.00
6206;DHT22;3136;48.788;9.772;2023-07-13T04:21:29;15.40;1.00
6206;DHT22;3136;48.788;9.772;2023-07-13T04:23:55;15.40;1.00
6206;DHT22;3136;48.788;9.772;2023-07-13T04:26:21;15.50;1.00
6206;DHT22;3136;48.788;9.772;2023-07-13T04:28:48;15.60;1.00
6206;DHT22;3136;48.788;9.772;2023-07-13T04:31:14;15.60;99.90
6206;DHT22;3136;48.788;9.772;2023-07-13T04:33:39;15.60;1.00
6206;DHT22;3136;48.788;9.772;2023-07-13T04:36:05;15.70;1.00
6206;DHT22;3136;48.788;9.772;2023-07-13T04:38:35;15.70;99.90
6206;DHT22;3136;48.788;9.772;2023-07-13T04:41:04;16.40;21.10
6206;DHT22;3136;48.788;9.772;2023-07-13T04:43:30;15.90;1.00
6206;DHT22;3136;48.788;9.772;2023-07-13T04:45:56;15.90;99.90
6206;DHT22;3136;48.788;9.772;2023-07-13T04:48:23;15.90;23.30
6206;DHT22;3136;48.788;9.772;2023-07-13T04:50:55;15.90;1.00
6206;DHT22;3136;48.788;9.772;2023-07-13T04:53:21;16.00;1.00
6206;DHT22;3136;48.788;9.772;2023-07-13T04:55:47;16.00;1.00
6206;DHT22;3136;48.788;9.772;2023-07-13T04:58:13;16.10;1.00
6206;DHT22;3136;48.788;9.772;2023-07-13T05:00:39;16.10;1.00
6206;DHT22;3136;48.788;9.772;2023-07-13T05:03:04;16.20;1.00
6206;DHT22;3136;48.788;9.772;2023-07-13T05:05:30;16.20;1.00
6206;DHT22;3136;48.788;9.772;2023-07-13T05:07:56;16.30;1.00
6206;DHT22;3136;48.788;9.772;2023-07-13T05:10:22;16.30;99.90
6206;DHT22;3136;48.788;9.772;2023-07-13T05:12:47;16.40;1.00
6206;DHT22;3136;48.788;9.772;2023-07-13T05:15:13;16.60;1.00
6206;DHT22;3136;48.788;9.772;2023-07-13T05:17:39;16.40;1.00
6206;DHT22;3136;48.788;9.772;2023-07-13T05:20:06;16.40;1.00
6206;DHT22;3136;48.788;9.772;2023-07-13T05:22:32;15.20;99.90
6206;DHT22;3136;48.788;9.772;2023-07-13T05:25:00;16.90;97.80
6206;DHT22;3136;48.788;9.772;2023-07-13T05:27:26;16.50;67.00
6206;DHT22;3136;48.788;9.772;2023-07-13T05:29:52;16.50;99.90
6206;DHT22;3136;48.788;9.772;2023-07-13T05:32:18;16.60;99.90
6206;DHT22;3136;48.788;9.772;2023-07-13T05:34:44;16.70;99.90
6206;DHT22;3136;48.788;9.772;2023-07-13T05:37:09;16.70;1.00
6206;DHT22;3136;48.788;9.772;2023-07-13T05:39:35;16.70;1.00
6206;DHT22;3136;48.788;9.772;2023-07-13T05:42:02;16.70;1.00
6206;DHT22;3136;48.788;9.772;2023-07-13T05:44:27;16.80;1.00
6206;DHT22;3136;48.788;9.772;2023-07-13T05:46:53;16.80;1.00
6206;DHT22;3136;48.788;9.772;2023-07-13T05:49:20;16.80;99.90
6206;DHT22;3136;48.788;9.772;2023-07-13T05:51:45;16.90;1.00
6206;DHT22;3136;48.788;9.772;2023-07-13T05:54:11;16.90;1.00
6206;DHT22;3136;48.788;9.772;2023-07-13T05:56:36;16.90;99.90
6206;DHT22;3136;48.788;9.772;2023-07-13T05:59:02;17.00;1.00
6206;DHT22;3136;48.788;9.772;2023-07-13T06:01:29;17.10;99.90
6206;DHT22;3136;48.788;9.772;2023-07-13T06:03:56;17.10;1.00
6206;DHT22;3136;48.788;9.772;2023-07-13T06:06:22;17.40;1.00
6206;DHT22;3136;48.788;9.772;2023-07-13T06:08:47;17.30;1.00
6206;DHT22;3136;48.788;9.772;2023-07-13T06:11:22;17.40;1.00
6206;DHT22;3136;48.788;9.772;2023-07-13T06:13:48;17.70;1.00
6206;DHT22;3136;48.788;9.772;2023-07-13T06:16:15;17.70;1.00
6206;DHT22;3136;48.788;9.772;2023-07-13T06:18:40;17.70;1.00
6206;DHT22;3136;48.788;9.772;2023-07-13T06:21:11;17.80;1.00
6206;DHT22;3136;48.788;9.772;2023-07-13T06:23:37;17.90;1.00
6206;DHT22;3136;48.788;9.772;2023-07-13T06:26:04;17.90;99.90
6206;DHT22;3136;48.788;9.772;2023-07-13T06:28:31;18.10;99.90
6206;DHT22;3136;48.788;9.772;2023-07-13T06:30:57;18.10;99.90
6206;DHT22;3136;48.788;9.772;2023-07-13T06:33:23;18.20;99.90
6206;DHT22;3136;48.788;9.772;2023-07-13T06:35:49;18.10;99.90
6206;DHT22;3136;48.788;9.772;2023-07-13T06:38:14;18.10;1.00
6206;DHT22;3136;48.788;9.772;2023-07-13T06:40:40;18.10;1.00
6206;DHT22;3136;48.788;9.772;2023-07-13T06:43:06;18.20;1.00
6206;DHT22;3136;48.788;9.772;2023-07-13T06:45:41;18.20;1.00
6206;DHT22;3136;48.788;9.772;2023-07-13T06:48:07;18.20;1.00
6206;DHT22;3136;48.788;9.772;2023-07-13T06:50:33;18.30;1.00
6206;DHT22;3136;48.788;9.772;2023-07-13T06:52:59;18.40;99.90
6206;DHT22;3136;48.788;9.772;2023-07-13T06:55:25;18.60;99.90
6206;DHT22;3136;48.788;9.772;2023-07-13T06:57:51;18.70;99.90
6206;DHT22;3136;48.788;9.772;2023-07-13T07:00:17;18.70;99.90
6206;DHT22;3136;48.788;9.772;2023-07-13T07:02:43;18.80;99.90
6206;DHT22;3136;48.788;9.772;2023-07-13T07:05:08;18.90;99.90
6206;DHT22;3136;48.788;9.772;2023-07-13T07:07:34;18.90;99.90
6206;DHT22;3136;48.788;9.772;2023-07-13T07:09:59;18.90;99.90
6206;DHT22;3136;48.788;9.772;2023-07-13T07:12:25;18.80;99.90
6206;DHT22;3136;48.788;9.772;2023-07-13T07:14:51;18.90;99.90
6206;DHT22;3136;48.788;9.772;2023-07-13T07:17:16;19.60;99.90
6206;DHT22;3136;48.788;9.772;2023-07-13T07:19:42;18.90;99.90
6206;DHT22;3136;48.788;9.772;2023-07-13T07:22:07;18.80;99.90
6206;DHT22;3136;48.788;9.772;2023-07-13T07:24:33;18.70;99.90
6206;DHT22;3136;48.788;9.772;2023-07-13T07:26:58;18.70;99.90
6206;DHT22;3136;48.788;9.772;2023-07-13T07:29:24;18.60;99.90
6206;DHT22;3136;48.788;9.772;2023-07-13T07:31:51;18.70;99.90
6206;DHT22;3136;48.788;9.772;2023-07-13T07:34:17;18.70;99.90
6206;DHT22;3136;48.788;9.772;2023-07-13T07:36:43;18.70;99.90
6206;DHT22;3136;48.788;9.772;2023-07-13T07:39:08;18.90;99.90
6206;DHT22;3136;48.788;9.772;2023-07-13T07:41:34;19.20;99.90
6206;DHT22;3136;48.788;9.772;2023-07-13T07:43:59;19.20;99.90
6206;DHT22;3136;48.788;9.772;2023-07-13T07:46:25;19.40;99.90
6206;DHT22;3136;48.788;9.772;2023-07-13T07:48:50;19.60;99.90
6206;DHT22;3136;48.788;9.772;2023-07-13T07:51:16;19.70;91.60
6206;DHT22;3136;48.788;9.772;2023-07-13T07:53:42;19.80;89.70
6206;DHT22;3136;48.788;9.772;2023-07-13T07:56:08;19.90;79.50
6206;DHT22;3136;48.788;9.772;2023-07-13T07:58:35;20.10;57.80
6206;DHT22;3136;48.788;9.772;2023-07-13T08:01:04;20.30;43.60
6206;DHT22;3136;48.788;9.772;2023-07-13T08:03:30;20.40;41.90
6206;DHT22;3136;48.788;9.772;2023-07-13T08:05:56;20.70;42.50
6206;DHT22;3136;48.788;9.772;2023-07-13T08:08:21;20.80;38.80
6206;DHT22;3136;48.788;9.772;2023-07-13T08:10:47;20.90;35.20
6206;DHT22;3136;48.788;9.772;2023-07-13T08:13:13;20.80;37.20
6206;DHT22;3136;48.788;9.772;2023-07-13T08:15:38;20.90;42.60
6206;DHT22;3136;48.788;9.772;2023-07-13T08:18:05;21.00;40.80
6206;DHT22;3136;48.788;9.772;2023-07-13T08:20:31;21.10;34.70
6206;DHT22;3136;48.788;9.772;2023-07-13T08:22:57;21.30;19.10
6206;DHT22;3136;48.788;9.772;2023-07-13T08:25:22;21.30;33.50
6206;DHT22;3136;48.788;9.772;2023-07-13T08:27:48;21.40;32.40
6206;DHT22;3136;48.788;9.772;2023-07-13T08:30:14;21.50;32.70
6206;DHT22;3136;48.788;9.772;2023-07-13T08:32:39;21.60;33.60
6206;DHT22;3136;48.788;9.772;2023-07-13T08:35:05;21.80;37.20
6206;DHT22;3136;48.788;9.772;2023-07-13T08:37:31;21.80;34.30
6206;DHT22;3136;48.788;9.772;2023-07-13T08:39:56;21.90;32.80
6206;DHT22;3136;48.788;9.772;2023-07-13T08:42:32;22.00;33.70
6206;DHT22;3136;48.788;9.772;2023-07-13T08:47:28;22.20;24.40
6206;DHT22;3136;48.788;9.772;2023-07-13T08:49:55;22.20;26.00
6206;DHT22;3136;48.788;9.772;2023-07-13T08:52:38;22.30;23.10
6206;DHT22;3136;48.788;9.772;2023-07-13T08:55:15;22.30;22.20
6206;DHT22;3136;48.788;9.772;2023-07-13T08:57:43;22.30;21.70
6206;DHT22;3136;48.788;9.772;2023-07-13T09:00:11;22.40;19.60
6206;DHT22;3136;48.788;9.772;2023-07-13T09:02:48;22.50;21.10
6206;DHT22;3136;48.788;9.772;2023-07-13T09:08:31;22.70;18.60
6206;DHT22;3136;48.788;9.772;2023-07-13T09:16:51;22.80;18.00
6206;DHT22;3136;48.788;9.772;2023-07-13T09:19:25;22.90;16.80
6206;DHT22;3136;48.788;9.772;2023-07-13T09:21:54;23.10;18.10
6206;DHT22;3136;48.788;9.772;2023-07-13T09:24:37;23.20;14.70
6206;DHT22;3136;48.788;9.772;2023-07-13T09:27:17;23.10;14.50
6206;DHT22;3136;48.788;9.772;2023-07-13T09:30:02;23.30;15.50
6206;DHT22;3136;48.788;9.772;2023-07-13T09:32:29;23.40;14.20
6206;DHT22;3136;48.788;9.772;2023-07-13T09:34:56;23.50;12.80
6206;DHT22;3136;48.788;9.772;2023-07-13T09:37:27;23.50;13.10
6206;DHT22;3136;48.788;9.772;2023-07-13T09:39:54;23.60;13.70
6206;DHT22;3136;48.788;9.772;2023-07-13T09:42:22;23.70;11.30
6206;DHT22;3136;48.788;9.772;2023-07-13T09:44:57;23.70;10.20
6206;DHT22;3136;48.788;9.772;2023-07-13T09:47:27;23.90;9.30
6206;DHT22;3136;48.788;9.772;2023-07-13T09:49:57;24.00;10.00
6206;DHT22;3136;48.788;9.772;2023-07-13T09:52:24;23.90;8.70
6206;DHT22;3136;48.788;9.772;2023-07-13T09:54:51;24.00;7.40
6206;DHT22;3136;48.788;9.772;2023-07-13T09:57:23;24.20;8.30
6206;DHT22;3136;48.788;9.772;2023-07-13T09:59:51;24.20;7.60
6206;DHT22;3136;48.788;9.772;2023-07-13T10:02:31;24.00;7.10
6206;DHT22;3136;48.788;9.772;2023-07-13T10:05:04;24.00;6.40
6206;DHT22;3136;48.788;9.772;2023-07-13T10:07:31;24.20;6.70
6206;DHT22;3136;48.788;9.772;2023-07-13T10:09:59;24.50;6.40
6206;DHT22;3136;48.788;9.772;2023-07-13T10:12:30;24.60;7.20
6206;DHT22;3136;48.788;9.772;2023-07-13T10:15:01;24.80;6.40
6206;DHT22;3136;48.788;9.772;2023-07-13T10:17:29;24.70;3.50
6206;DHT22;3136;48.788;9.772;2023-07-13T10:19:59;24.70;4.60
6206;DHT22;3136;48.788;9.772;2023-07-13T10:22:39;24.50;5.80
6206;DHT22;3136;48.788;9.772;2023-07-13T10:25:20;24.60;2.80
6206;DHT22;3136;48.788;9.772;2023-07-13T10:27:50;24.70;4.40
6206;DHT22;3136;48.788;9.772;2023-07-13T10:30:19;24.70;2.80
6206;DHT22;3136;48.788;9.772;2023-07-13T10:32:46;24.90;2.60
6206;DHT22;3136;48.788;9.772;2023-07-13T10:35:15;25.00;2.10
6206;DHT22;3136;48.788;9.772;2023-07-13T10:37:58;25.20;2.40
6206;DHT22;3136;48.788;9.772;2023-07-13T10:40:33;25.20;1.80
6206;DHT22;3136;48.788;9.772;2023-07-13T10:43:02;25.20;1.00
6206;DHT22;3136;48.788;9.772;2023-07-13T10:45:33;25.50;1.00
6206;DHT22;3136;48.788;9.772;2023-07-13T10:48:00;25.80;1.40
6206;DHT22;3136;48.788;9.772;2023-07-13T10:50:28;26.20;1.00
6206;DHT22;3136;48.788;9.772;2023-07-13T10:53:01;26.30;1.00
6206;DHT22;3136;48.788;9.772;2023-07-13T11:03:33;27.00;1.00
6206;DHT22;3136;48.788;9.772;2023-07-13T11:18:52;27.40;1.00
6206;DHT22;3136;48.788;9.772;2023-07-13T11:21:25;27.60;1.00
6206;DHT22;3136;48.788;9.772;2023-07-13T11:23:54;27.60;1.00
6206;DHT22;3136;48.788;9.772;2023-07-13T11:31:56;26.80;1.00
6206;DHT22;3136;48.788;9.772;2023-07-13T11:34:36;27.20;1.00
6206;DHT22;3136;48.788;9.772;2023-07-13T11:37:03;27.20;1.00
6206;DHT22;3136;48.788;9.772;2023-07-13T11:39:35;27.40;1.00
6206;DHT22;3136;48.788;9.772;2023-07-13T11:42:08;27.50;1.00
6206;DHT22;3136;48.788;9.772;2023-07-13T11:44:42;28.00;1.00
6206;DHT22;3136;48.788;9.772;2023-07-13T11:47:11;28.90;1.00
6206;DHT22;3136;48.788;9.772;2023-07-13T11:49:51;29.60;1.00
6206;DHT22;3136;48.788;9.772;2023-07-13T11:52:21;29.70;1.00
6206;DHT22;3136;48.788;9.772;2023-07-13T11:54:50;29.60;1.00
6206;DHT22;3136;48.788;9.772;2023-07-13T11:57:32;29.80;1.00
6206;DHT22;3136;48.788;9.772;2023-07-13T12:00:02;30.20;1.00
6206;DHT22;3136;48.788;9.772;2023-07-13T12:02:32;30.20;1.00
6206;DHT22;3136;48.788;9.772;2023-07-13T12:04:59;29.30;1.00
6206;DHT22;3136;48.788;9.772;2023-07-13T12:07:29;28.40;1.00
6206;DHT22;3136;48.788;9.772;2023-07-13T12:10:03;28.00;1.00
6206;DHT22;3136;48.788;9.772;2023-07-13T12:12:36;28.20;1.00
6206;DHT22;3136;48.788;9.772;2023-07-13T12:15:06;28.70;1.00
6206;DHT22;3136;48.788;9.772;2023-07-13T12:17:34;29.10;1.00
6206;DHT22;3136;48.788;9.772;2023-07-13T12:20:00;29.40;1.00
6206;DHT22;3136;48.788;9.772;2023-07-13T12:22:27;29.90;1.00
6206;DHT22;3136;48.788;9.772;2023-07-13T12:24:53;30.10;1.00
6206;DHT22;3136;48.788;9.772;2023-07-13T12:27:25;30.80;1.00
6206;DHT22;3136;48.788;9.772;2023-07-13T12:29:59;31.40;1.00
6206;DHT22;3136;48.788;9.772;2023-07-13T12:32:26;31.90;1.00
6206;DHT22;3136;48.788;9.772;2023-07-13T12:35:12;32.20;1.00
6206;DHT22;3136;48.788;9.772;2023-07-13T12:37:42;32.50;1.00
6206;DHT22;3136;48.788;9.772;2023-07-13T12:40:16;32.90;1.00
6206;DHT22;3136;48.788;9.772;2023-07-13T12:42:46;33.30;1.00
6206;DHT22;3136;48.788;9.772;2023-07-13T12:45:25;33.10;1.00
6206;DHT22;3136;48.788;9.772;2023-07-13T12:47:55;33.50;1.00
6206;DHT22;3136;48.788;9.772;2023-07-13T12:50:22;33.30;1.00
6206;DHT22;3136;48.788;9.772;2023-07-13T12:52:54;33.30;1.00
6206;DHT22;3136;48.788;9.772;2023-07-13T12:55:21;32.80;1.00
6206;DHT22;3136;48.788;9.772;2023-07-13T12:57:51;32.60;1.00
6206;DHT22;3136;48.788;9.772;2023-07-13T13:00:28;32.50;1.00
6206;DHT22;3136;48.788;9.772;2023-07-13T13:02:56;32.10;1.00
6206;DHT22;3136;48.788;9.772;2023-07-13T13:05:25;31.90;1.00
6206;DHT22;3136;48.788;9.772;2023-07-13T13:07:51;31.70;1.00
6206;DHT22;3136;48.788;9.772;2023-07-13T13:10:17;31.50;1.00
6206;DHT22;3136;48.788;9.772;2023-07-13T13:12:43;31.10;1.00
6206;DHT22;3136;48.788;9.772;2023-07-13T13:15:10;30.50;1.00
6206;DHT22;3136;48.788;9.772;2023-07-13T13:17:37;29.50;1.00
6206;DHT22;3136;48.788;9.772;2023-07-13T13:20:18;29.10;1.00
6206;DHT22;3136;48.788;9.772;2023-07-13T13:22:44;27.50;1.00
6206;DHT22;3136;48.788;9.772;2023-07-13T13:25:11;27.50;1.00
6206;DHT22;3136;48.788;9.772;2023-07-13T13:27:37;27.90;1.00
6206;DHT22;3136;48.788;9.772;2023-07-13T13:30:10;28.50;1.00
6206;DHT22;3136;48.788;9.772;2023-07-13T13:32:39;28.50;1.00
6206;DHT22;3136;48.788;9.772;2023-07-13T13:35:05;28.00;1.00
6206;DHT22;3136;48.788;9.772;2023-07-13T13:37:32;27.20;1.00
6206;DHT22;3136;48.788;9.772;2023-07-13T13:39:57;26.60;1.00
6206;DHT22;3136;48.788;9.772;2023-07-13T13:42:23;26.40;1.00
6206;DHT22;3136;48.788;9.772;2023-07-13T13:44:51;26.30;1.00
6206;DHT22;3136;48.788;9.772;2023-07-13T13:47:43;26.30;1.00
6206;DHT22;3136;48.788;9.772;2023-07-13T13:50:12;26.40;1.00
6206;DHT22;3136;48.788;9.772;2023-07-13T13:52:40;26.90;1.00
6206;DHT22;3136;48.788;9.772;2023-07-13T13:55:17;27.80;1.00
6206;DHT22;3136;48.788;9.772;2023-07-13T13:57:45;28.40;1.00
6206;DHT22;3136;48.788;9.772;2023-07-13T14:00:12;29.00;1.00
6206;DHT22;3136;48.788;9.772;2023-07-13T14:02:44;29.20;1.00
6206;DHT22;3136;48.788;9.772;2023-07-13T14:05:14;29.30;1.00
6206;DHT22;3136;48.788;9.772;2023-07-13T14:07:41;29.10;1.00
6206;DHT22;3136;48.788;9.772;2023-07-13T14:10:14;28.70;1.00
6206;DHT22;3136;48.788;9.772;2023-07-13T14:12:41;28.50;1.00
6206;DHT22;3136;48.788;9.772;2023-07-13T14:15:18;28.30;1.00
6206;DHT22;3136;48.788;9.772;2023-07-13T14:17:45;28.20;1.00
6206;DHT22;3136;48.788;9.772;2023-07-13T14:20:12;28.10;1.00
6206;DHT22;3136;48.788;9.772;2023-07-13T14:22:41;28.00;1.00
6206;DHT22;3136;48.788;9.772;2023-07-13T14:25:14;27.70;1.00
6206;DHT22;3136;48.788;9.772;2023-07-13T14:27:41;27.20;1.00
6206;DHT22;3136;48.788;9.772;2023-07-13T14:30:14;27.20;1.00
6206;DHT22;3136;48.788;9.772;2023-07-13T14:32:40;27.30;1.00
6206;DHT22;3136;48.788;9.772;2023-07-13T14:35:11;27.30;1.00
6206;DHT22;3136;48.788;9.772;2023-07-13T14:37:38;27.10;1.00
6206;DHT22;3136;48.788;9.772;2023-07-13T14:40:15;26.90;1.00
6206;DHT22;3136;48.788;9.772;2023-07-13T14:42:42;26.80;1.00
6206;DHT22;3136;48.788;9.772;2023-07-13T14:45:13;26.80;1.00
6206;DHT22;3136;48.788;9.772;2023-07-13T14:47:38;26.70;1.00
6206;DHT22;3136;48.788;9.772;2023-07-13T14:50:04;27.00;1.00
6206;DHT22;3136;48.788;9.772;2023-07-13T14:52:30;27.20;1.00
6206;DHT22;3136;48.788;9.772;2023-07-13T14:54:56;27.30;1.00
6206;DHT22;3136;48.788;9.772;2023-07-13T14:57:21;27.20;1.00
6206;DHT22;3136;48.788;9.772;2023-07-13T14:59:47;26.90;1.00
6206;DHT22;3136;48.788;9.772;2023-07-13T15:02:29;26.70;1.00
6206;DHT22;3136;48.788;9.772;2023-07-13T15:04:56;26.50;1.00
6206;DHT22;3136;48.788;9.772;2023-07-13T15:07:22;26.40;1.00
6206;DHT22;3136;48.788;9.772;2023-07-13T15:09:48;26.30;1.00
6206;DHT22;3136;48.788;9.772;2023-07-13T15:12:16;26.30;1.00
6206;DHT22;3136;48.788;9.772;2023-07-13T15:14:41;26.30;1.00
6206;DHT22;3136;48.788;9.772;2023-07-13T15:17:28;26.40;1.00
6206;DHT22;3136;48.788;9.772;2023-07-13T15:19:56;26.50;1.00
6206;DHT22;3136;48.788;9.772;2023-07-13T15:22:22;26.50;1.00
6206;DHT22;3136;48.788;9.772;2023-07-13T15:24:47;26.40;1.00
6206;DHT22;3136;48.788;9.772;2023-07-13T15:27:13;26.20;1.00
6206;DHT22;3136;48.788;9.772;2023-07-13T15:29:38;26.00;1.00
6206;DHT22;3136;48.788;9.772;2023-07-13T15:32:12;25.80;1.00
6206;DHT22;3136;48.788;9.772;2023-07-13T15:34:38;25.80;1.00
6206;DHT22;3136;48.788;9.772;2023-07-13T15:37:08;25.70;1.00
6206;DHT22;3136;48.788;9.772;2023-07-13T15:39:36;25.70;1.00
6206;DHT22;3136;48.788;9.772;2023-07-13T15:42:03;25.80;1.00
6206;DHT22;3136;48.788;9.772;2023-07-13T15:44:30;25.60;1.00
6206;DHT22;3136;48.788;9.772;2023-07-13T15:46:57;25.50;1.00
6206;DHT22;3136;48.788;9.772;2023-07-13T15:49:25;25.50;1.00
6206;DHT22;3136;48.788;9.772;2023-07-13T15:51:51;25.70;1.00
6206;DHT22;3136;48.788;9.772;2023-07-13T15:54:18;25.70;1.00
6206;DHT22;3136;48.788;9.772;2023-07-13T15:56:47;25.90;1.00
6206;DHT22;3136;48.788;9.772;2023-07-13T15:59:14;26.00;1.00
6206;DHT22;3136;48.788;9.772;2023-07-13T16:01:40;26.00;1.00
6206;DHT22;3136;48.788;9.772;2023-07-13T16:04:08;26.10;1.00
6206;DHT22;3136;48.788;9.772;2023-07-13T16:06:35;26.00;1.00
6206;DHT22;3136;48.788;9.772;2023-07-13T16:09:02;25.80;1.00
6206;DHT22;3136;48.788;9.772;2023-07-13T16:11:37;25.60;1.00
6206;DHT22;3136;48.788;9.772;2023-07-13T16:14:03;25.40;1.00
6206;DHT22;3136;48.788;9.772;2023-07-13T16:16:31;25.40;1.00
6206;DHT22;3136;48.788;9.772;2023-07-13T16:18:59;25.50;1.00
6206;DHT22;3136;48.788;9.772;2023-07-13T16:21:30;25.80;1.00
6206;DHT22;3136;48.788;9.772;2023-07-13T16:23:58;26.10;1.00
6206;DHT22;3136;48.788;9.772;2023-07-13T16:28:49;26.10;1.00
6206;DHT22;3136;48.788;9.772;2023-07-13T16:31:14;26.00;1.00
6206;DHT22;3136;48.788;9.772;2023-07-13T16:33:40;25.80;1.00
6206;DHT22;3136;48.788;9.772;2023-07-13T16:36:10;25.60;1.00
6206;DHT22;3136;48.788;9.772;2023-07-13T16:38:36;25.50;1.00
6206;DHT22;3136;48.788;9.772;2023-07-13T16:41:02;25.40;1.00
6206;DHT22;3136;48.788;9.772;2023-07-13T16:43:30;25.40;1.00
6206;DHT22;3136;48.788;9.772;2023-07-13T16:45:57;25.50;1.00
6206;DHT22;3136;48.788;9.772;2023-07-13T16:48:27;25.50;1.00
6206;DHT22;3136;48.788;9.772;2023-07-13T16:50:56;25.50;1.00
6206;DHT22;3136;48.788;9.772;2023-07-13T16:53:27;25.50;1.00
6206;DHT22;3136;48.788;9.772;2023-07-13T16:55:53;25.20;1.00